sensor_id;sensor_type;location;lat;lon;timestamp;pressure;altitude;pressure_sealevel;temperature;humidity
62697;BME280;48761;42.680;23.312;2023-02-28T00:02:21;95284.34;;;8.28;84.73
62697;BME280;48761;42.680;23.312;2023-02-28T00:04:46;95277.34;;;8.27;84.09
62697;BME280;48761;42.680;23.312;2023-02-28T00:07:12;95292.75;;;8.36;84.33
62697;BME280;48761;42.680;23.312;2023-02-28T00:09:38;95295.69;;;8.14;84.72
62697;BME280;48761;42.680;23.312;2023-02-28T00:12:04;95284.06;;;7.82;86.71
62697;BME280;48761;42.680;23.312;2023-02-28T00:14:30;95281.16;;;8.05;85.52
62697;BME280;48761;42.680;23.312;2023-02-28T00:16:56;95294.94;;;8.28;84.97
62697;BME280;48761;42.680;23.312;2023-02-28T00:19:22;95278.03;;;7.62;86.89
62697;BME280;48761;42.680;23.312;2023-02-28T00:21:48;95296.47;;;7.64;87.53
62697;BME280;48761;42.680;23.312;2023-02-28T00:24:14;95311.19;;;7.70;87.38
62697;BME280;48761;42.680;23.312;2023-02-28T00:26:40;95305.66;;;7.57;87.48
62697;BME280;48761;42.680;23.312;2023-02-28T00:29:06;95312.19;;;7.67;87.30
62697;BME280;48761;42.680;23.312;2023-02-28T00:31:32;95308.28;;;7.74;87.37
62697;BME280;48761;42.680;23.312;2023-02-28T00:33:58;95271.41;;;7.54;87.34
62697;BME280;48761;42.680;23.312;2023-02-28T00:36:23;95310.66;;;7.63;87.51
62697;BME280;48761;42.680;23.312;2023-02-28T00:38:49;95292.66;;;7.16;89.09
62697;BME280;48761;42.680;23.312;2023-02-28T00:41:15;95316.06;;;7.24;89.69
62697;BME280;48761;42.680;23.312;2023-02-28T00:43:41;95309.75;;;7.09;89.86
62697;BME280;48761;42.680;23.312;2023-02-28T00:46:08;95286.44;;;6.80;90.47
62697;BME280;48761;42.680;23.312;2023-02-28T00:48:34;95303.97;;;7.01;90.83
62697;BME280;48761;42.680;23.312;2023-02-28T00:51:01;95293.03;;;7.26;89.83
62697;BME280;48761;42.680;23.312;2023-02-28T00:53:27;95284.00;;;7.31;89.22
62697;BME280;48761;42.680;23.312;2023-02-28T00:55:54;95300.97;;;7.44;88.71
62697;BME280;48761;42.680;23.312;2023-02-28T00:58:20;95300.06;;;7.63;88.28
62697;BME280;48761;42.680;23.312;2023-02-28T01:00:46;95291.94;;;7.48;87.78
62697;BME280;48761;42.680;23.312;2023-02-28T01:03:11;95308.00;;;7.81;87.50
62697;BME280;48761;42.680;23.312;2023-02-28T01:05:37;95292.56;;;7.71;87.37
62697;BME280;48761;42.680;23.312;2023-02-28T01:08:03;95300.59;;;7.52;89.18
62697;BME280;48761;42.680;23.312;2023-02-28T01:10:29;95299.59;;;7.55;88.40
62697;BME280;48761;42.680;23.312;2023-02-28T01:12:55;95263.66;;;7.15;89.08
62697;BME280;48761;42.680;23.312;2023-02-28T01:15:21;95297.66;;;7.40;89.13
62697;BME280;48761;42.680;23.312;2023-02-28T01:17:47;95291.03;;;7.32;89.63
62697;BME280;48761;42.680;23.312;2023-02-28T01:20:13;95299.88;;;7.48;88.76
62697;BME280;48761;42.680;23.312;2023-02-28T01:22:39;95288.38;;;7.32;88.57
62697;BME280;48761;42.680;23.312;2023-02-28T01:25:05;95294.19;;;7.21;89.69
62697;BME280;48761;42.680;23.312;2023-02-28T01:27:31;95286.44;;;7.35;89.02
62697;BME280;48761;42.680;23.312;2023-02-28T01:29:57;95277.94;;;7.11;89.97
62697;BME280;48761;42.680;23.312;2023-02-28T01:32:23;95263.66;;;7.15;89.20
62697;BME280;48761;42.680;23.312;2023-02-28T01:34:49;95286.19;;;7.22;89.22
62697;BME280;48761;42.680;23.312;2023-02-28T01:37:15;95292.38;;;7.40;88.84
62697;BME280;48761;42.680;23.312;2023-02-28T01:39:41;95295.69;;;7.44;88.93
62697;BME280;48761;42.680;23.312;2023-02-28T01:42:09;95296.16;;;7.35;88.86
62697;BME280;48761;42.680;23.312;2023-02-28T01:47:34;95310.03;;;7.40;89.07
62697;BME280;48761;42.680;23.312;2023-02-28T01:50:06;95295.38;;;7.15;88.47
62697;BME280;48761;42.680;23.312;2023-02-28T01:52:33;95311.56;;;7.44;87.86
62697;BME280;48761;42.680;23.312;2023-02-28T01:55:01;95300.75;;;7.49;87.22
62697;BME280;48761;42.680;23.312;2023-02-28T01:57:32;95301.06;;;7.60;86.83
62697;BME280;48761;42.680;23.312;2023-02-28T02:00:11;95300.75;;;7.67;86.15
62697;BME280;48761;42.680;23.312;2023-02-28T02:02:37;95277.38;;;7.75;85.66
62697;BME280;48761;42.680;23.312;2023-02-28T02:05:06;95299.09;;;7.64;85.69
62697;BME280;48761;42.680;23.312;2023-02-28T02:07:35;95291.41;;;7.59;86.10
62697;BME280;48761;42.680;23.312;2023-02-28T02:10:50;95299.44;;;7.40;87.01
62697;BME280;48761;42.680;23.312;2023-02-28T02:13:46;95303.97;;;7.38;87.56
62697;BME280;48761;42.680;23.312;2023-02-28T02:22:12;95287.28;;;7.71;86.53
62697;BME280;48761;42.680;23.312;2023-02-28T02:35:27;95273.72;;;8.12;83.00
62697;BME280;48761;42.680;23.312;2023-02-28T02:38:08;95290.44;;;7.96;83.35
62697;BME280;48761;42.680;23.312;2023-02-28T02:40:55;95298.22;;;7.81;84.45
62697;BME280;48761;42.680;23.312;2023-02-28T02:46:20;95301.69;;;7.48;86.37
62697;BME280;48761;42.680;23.312;2023-02-28T02:48:47;95308.53;;;7.52;86.48
62697;BME280;48761;42.680;23.312;2023-02-28T02:51:16;95307.53;;;7.55;85.84
62697;BME280;48761;42.680;23.312;2023-02-28T02:54:03;95312.81;;;7.37;86.91
62697;BME280;48761;42.680;23.312;2023-02-28T02:56:33;95308.81;;;7.10;88.57
62697;BME280;48761;42.680;23.312;2023-02-28T02:59:03;95312.03;;;7.35;88.14
62697;BME280;48761;42.680;23.312;2023-02-28T03:01:31;95313.28;;;7.27;87.84
62697;BME280;48761;42.680;23.312;2023-02-28T03:04:01;95272.78;;;6.90;88.27
62697;BME280;48761;42.680;23.312;2023-02-28T03:06:28;95308.06;;;6.89;89.34
62697;BME280;48761;42.680;23.312;2023-02-28T03:08:54;95320.41;;;6.88;89.64
62697;BME280;48761;42.680;23.312;2023-02-28T03:11:20;95325.84;;;7.04;88.95
62697;BME280;48761;42.680;23.312;2023-02-28T03:13:54;95332.22;;;7.18;89.06
62697;BME280;48761;42.680;23.312;2023-02-28T03:21:38;95337.94;;;7.28;87.62
62697;BME280;48761;42.680;23.312;2023-02-28T03:24:18;95345.78;;;7.29;87.78
62697;BME280;48761;42.680;23.312;2023-02-28T03:26:52;95343.25;;;7.09;88.26
62697;BME280;48761;42.680;23.312;2023-02-28T03:31:59;95351.38;;;7.23;87.31
62697;BME280;48761;42.680;23.312;2023-02-28T03:34:33;95359.50;;;6.81;88.66
62697;BME280;48761;42.680;23.312;2023-02-28T03:37:07;95352.66;;;6.77;88.97
62697;BME280;48761;42.680;23.312;2023-02-28T03:39:46;95353.72;;;6.73;89.24
62697;BME280;48761;42.680;23.312;2023-02-28T03:42:23;95359.94;;;6.72;89.68
62697;BME280;48761;42.680;23.312;2023-02-28T03:45:03;95354.41;;;6.57;90.11
62697;BME280;48761;42.680;23.312;2023-02-28T03:50:35;95364.84;;;6.41;91.53
62697;BME280;48761;42.680;23.312;2023-02-28T03:53:52;95368.44;;;6.59;91.43
62697;BME280;48761;42.680;23.312;2023-02-28T03:56:07;95344.88;;;6.55;91.13
62697;BME280;48761;42.680;23.312;2023-02-28T03:58:42;95361.81;;;6.70;90.76
62697;BME280;48761;42.680;23.312;2023-02-28T04:01:21;95372.28;;;6.52;91.64
62697;BME280;48761;42.680;23.312;2023-02-28T04:03:50;95367.28;;;6.46;91.83
62697;BME280;48761;42.680;23.312;2023-02-28T04:06:19;95366.19;;;6.31;92.75
62697;BME280;48761;42.680;23.312;2023-02-28T04:08:46;95358.38;;;6.08;93.40
62697;BME280;48761;42.680;23.312;2023-02-28T04:11:23;95369.75;;;6.30;93.87
62697;BME280;48761;42.680;23.312;2023-02-28T04:13:49;95378.13;;;6.39;92.88
62697;BME280;48761;42.680;23.312;2023-02-28T04:16:15;95369.47;;;6.16;93.41
62697;BME280;48761;42.680;23.312;2023-02-28T04:18:42;95364.56;;;6.07;94.08
62697;BME280;48761;42.680;23.312;2023-02-28T04:21:08;95352.81;;;5.93;94.67
62697;BME280;48761;42.680;23.312;2023-02-28T04:23:34;95368.50;;;5.97;94.98
62697;BME280;48761;42.680;23.312;2023-02-28T04:26:01;95369.59;;;6.13;94.54
62697;BME280;48761;42.680;23.312;2023-02-28T04:28:26;95374.09;;;6.11;94.33
62697;BME280;48761;42.680;23.312;2023-02-28T04:31:00;95369.03;;;6.05;94.78
62697;BME280;48761;42.680;23.312;2023-02-28T04:33:27;95371.50;;;5.89;95.28
62697;BME280;48761;42.680;23.312;2023-02-28T04:36:00;95365.09;;;6.15;94.67
62697;BME280;48761;42.680;23.312;2023-02-28T04:38:27;95371.16;;;6.18;94.48
62697;BME280;48761;42.680;23.312;2023-02-28T04:40:53;95353.41;;;6.00;94.09
62697;BME280;48761;42.680;23.312;2023-02-28T04:43:18;95378.78;;;6.03;94.40
62697;BME280;48761;42.680;23.312;2023-02-28T04:45:44;95349.22;;;5.94;94.55
62697;BME280;48761;42.680;23.312;2023-02-28T04:48:10;95350.25;;;5.71;94.82
62697;BME280;48761;42.680;23.312;2023-02-28T04:50:36;95397.69;;;5.93;95.12
62697;BME280;48761;42.680;23.312;2023-02-28T04:53:02;95399.53;;;5.91;95.04
62697;BME280;48761;42.680;23.312;2023-02-28T04:55:28;95403.84;;;5.71;95.27
62697;BME280;48761;42.680;23.312;2023-02-28T04:57:54;95401.19;;;5.94;95.37
62697;BME280;48761;42.680;23.312;2023-02-28T05:00:20;95400.41;;;6.13;94.73
62697;BME280;48761;42.680;23.312;2023-02-28T05:02:46;95401.25;;;6.34;93.96
62697;BME280;48761;42.680;23.312;2023-02-28T05:05:12;95400.06;;;6.21;93.74
62697;BME280;48761;42.680;23.312;2023-02-28T05:07:38;95376.84;;;6.48;92.74
62697;BME280;48761;42.680;23.312;2023-02-28T05:10:04;95393.09;;;6.79;91.24
62697;BME280;48761;42.680;23.312;2023-02-28T05:12:30;95385.84;;;6.64;90.72
62697;BME280;48761;42.680;23.312;2023-02-28T05:14:56;95387.06;;;6.56;90.52
62697;BME280;48761;42.680;23.312;2023-02-28T05:17:22;95402.72;;;6.61;90.99
62697;BME280;48761;42.680;23.312;2023-02-28T05:19:48;95392.00;;;6.83;90.48
62697;BME280;48761;42.680;23.312;2023-02-28T05:22:15;95372.50;;;6.86;89.90
62697;BME280;48761;42.680;23.312;2023-02-28T05:24:41;95391.44;;;6.77;89.90
62697;BME280;48761;42.680;23.312;2023-02-28T05:27:08;95402.19;;;6.53;91.04
62697;BME280;48761;42.680;23.312;2023-02-28T05:29:34;95392.50;;;6.32;91.63
62697;BME280;48761;42.680;23.312;2023-02-28T05:32:00;95414.81;;;6.46;91.59
62697;BME280;48761;42.680;23.312;2023-02-28T05:34:25;95423.47;;;6.49;91.72
62697;BME280;48761;42.680;23.312;2023-02-28T05:36:51;95422.97;;;6.60;91.60
62697;BME280;48761;42.680;23.312;2023-02-28T05:39:17;95425.94;;;6.73;91.16
62697;BME280;48761;42.680;23.312;2023-02-28T05:41:43;95419.13;;;6.68;90.61
62697;BME280;48761;42.680;23.312;2023-02-28T05:44:10;95427.69;;;6.54;91.20
62697;BME280;48761;42.680;23.312;2023-02-28T05:46:36;95413.47;;;6.37;91.94
62697;BME280;48761;42.680;23.312;2023-02-28T05:49:02;95428.47;;;6.56;91.43
62697;BME280;48761;42.680;23.312;2023-02-28T05:51:28;95414.03;;;6.44;91.58
62697;BME280;48761;42.680;23.312;2023-02-28T05:53:58;95399.94;;;6.24;92.01
62697;BME280;48761;42.680;23.312;2023-02-28T05:56:25;95432.09;;;6.53;91.50
62697;BME280;48761;42.680;23.312;2023-02-28T05:58:50;95445.72;;;6.65;91.23
62697;BME280;48761;42.680;23.312;2023-02-28T06:01:43;95437.38;;;6.53;91.33
62697;BME280;48761;42.680;23.312;2023-02-28T06:04:09;95435.63;;;6.54;91.20
62697;BME280;48761;42.680;23.312;2023-02-28T06:06:36;95426.13;;;6.49;91.50
62697;BME280;48761;42.680;23.312;2023-02-28T06:09:06;95423.41;;;6.70;91.19
62697;BME280;48761;42.680;23.312;2023-02-28T06:11:32;95428.00;;;6.67;90.93
62697;BME280;48761;42.680;23.312;2023-02-28T06:13:59;95442.13;;;6.66;91.07
62697;BME280;48761;42.680;23.312;2023-02-28T06:16:26;95428.69;;;6.51;91.16
62697;BME280;48761;42.680;23.312;2023-02-28T06:18:52;95394.78;;;6.21;91.90
62697;BME280;48761;42.680;23.312;2023-02-28T06:21:18;95428.09;;;6.44;91.98
62697;BME280;48761;42.680;23.312;2023-02-28T06:23:44;95433.66;;;6.57;91.58
62697;BME280;48761;42.680;23.312;2023-02-28T06:26:11;95427.13;;;6.47;91.50
62697;BME280;48761;42.680;23.312;2023-02-28T06:28:36;95425.13;;;6.52;91.45
62697;BME280;48761;42.680;23.312;2023-02-28T06:31:11;95433.72;;;6.36;91.34
62697;BME280;48761;42.680;23.312;2023-02-28T06:33:38;95440.78;;;6.36;91.73
62697;BME280;48761;42.680;23.312;2023-02-28T06:36:05;95449.69;;;6.54;91.35
62697;BME280;48761;42.680;23.312;2023-02-28T06:38:31;95433.47;;;6.22;91.09
62697;BME280;48761;42.680;23.312;2023-02-28T06:40:59;95444.94;;;6.42;91.51
62697;BME280;48761;42.680;23.312;2023-02-28T06:43:30;95453.25;;;6.32;91.61
62697;BME280;48761;42.680;23.312;2023-02-28T06:45:58;95454.97;;;6.54;91.42
62697;BME280;48761;42.680;23.312;2023-02-28T06:48:26;95450.69;;;6.52;91.01
62697;BME280;48761;42.680;23.312;2023-02-28T06:51:04;95445.84;;;6.61;91.01
62697;BME280;48761;42.680;23.312;2023-02-28T06:53:30;95439.03;;;6.56;91.17
62697;BME280;48761;42.680;23.312;2023-02-28T06:55:56;95452.66;;;6.87;90.80
62697;BME280;48761;42.680;23.312;2023-02-28T06:58:22;95464.13;;;6.66;90.89
62697;BME280;48761;42.680;23.312;2023-02-28T07:00:51;95462.84;;;6.75;90.11
62697;BME280;48761;42.680;23.312;2023-02-28T07:03:17;95457.97;;;6.66;90.29
62697;BME280;48761;42.680;23.312;2023-02-28T07:05:44;95466.03;;;6.63;89.97
62697;BME280;48761;42.680;23.312;2023-02-28T07:08:11;95458.06;;;6.43;90.40
62697;BME280;48761;42.680;23.312;2023-02-28T07:10:38;95451.81;;;6.46;90.55
62697;BME280;48761;42.680;23.312;2023-02-28T07:13:05;95455.50;;;6.42;91.01
62697;BME280;48761;42.680;23.312;2023-02-28T07:15:31;95453.25;;;6.53;90.94
62697;BME280;48761;42.680;23.312;2023-02-28T07:17:57;95451.69;;;6.49;90.65
62697;BME280;48761;42.680;23.312;2023-02-28T07:20:24;95450.88;;;6.47;90.67
62697;BME280;48761;42.680;23.312;2023-02-28T07:22:50;95431.75;;;6.42;90.72
62697;BME280;48761;42.680;23.312;2023-02-28T07:25:16;95465.00;;;6.67;90.35
62697;BME280;48761;42.680;23.312;2023-02-28T07:27:42;95465.31;;;6.80;90.27
62697;BME280;48761;42.680;23.312;2023-02-28T07:30:09;95463.16;;;6.88;89.90
62697;BME280;48761;42.680;23.312;2023-02-28T07:32:35;95466.00;;;6.83;89.67
62697;BME280;48761;42.680;23.312;2023-02-28T07:35:01;95450.00;;;6.87;89.78
62697;BME280;48761;42.680;23.312;2023-02-28T07:37:26;95427.13;;;6.66;89.55
62697;BME280;48761;42.680;23.312;2023-02-28T07:39:52;95463.34;;;6.83;89.94
62697;BME280;48761;42.680;23.312;2023-02-28T07:42:18;95469.16;;;6.92;90.17
62697;BME280;48761;42.680;23.312;2023-02-28T07:44:44;95453.09;;;6.97;89.50
62697;BME280;48761;42.680;23.312;2023-02-28T07:47:10;95463.66;;;6.97;89.67
62697;BME280;48761;42.680;23.312;2023-02-28T07:49:36;95455.81;;;6.95;89.61
62697;BME280;48761;42.680;23.312;2023-02-28T07:52:04;95470.59;;;6.99;90.25
62697;BME280;48761;42.680;23.312;2023-02-28T07:54:31;95448.59;;;6.99;90.14
62697;BME280;48761;42.680;23.312;2023-02-28T07:56:57;95466.47;;;7.13;89.70
62697;BME280;48761;42.680;23.312;2023-02-28T07:59:23;95451.84;;;7.23;89.09
62697;BME280;48761;42.680;23.312;2023-02-28T08:01:49;95450.44;;;7.35;89.23
62697;BME280;48761;42.680;23.312;2023-02-28T08:04:16;95446.03;;;7.54;88.83
62697;BME280;48761;42.680;23.312;2023-02-28T08:06:42;95452.41;;;7.49;88.91
62697;BME280;48761;42.680;23.312;2023-02-28T08:09:08;95444.13;;;7.75;88.26
62697;BME280;48761;42.680;23.312;2023-02-28T08:11:34;95444.66;;;7.64;87.75
62697;BME280;48761;42.680;23.312;2023-02-28T08:14:00;95448.59;;;7.92;87.99
62697;BME280;48761;42.680;23.312;2023-02-28T08:16:26;95450.53;;;8.06;86.79
62697;BME280;48761;42.680;23.312;2023-02-28T08:18:53;95454.66;;;8.12;86.75
62697;BME280;48761;42.680;23.312;2023-02-28T08:21:19;95447.03;;;8.24;86.36
62697;BME280;48761;42.680;23.312;2023-02-28T08:23:50;95438.13;;;7.89;86.71
62697;BME280;48761;42.680;23.312;2023-02-28T08:26:19;95456.06;;;8.02;87.00
62697;BME280;48761;42.680;23.312;2023-02-28T08:28:46;95459.78;;;7.98;88.06
62697;BME280;48761;42.680;23.312;2023-02-28T08:31:14;95461.81;;;8.10;87.89
62697;BME280;48761;42.680;23.312;2023-02-28T08:33:41;95464.38;;;8.12;88.31
62697;BME280;48761;42.680;23.312;2023-02-28T08:36:08;95459.50;;;8.04;88.44
62697;BME280;48761;42.680;23.312;2023-02-28T08:38:35;95459.41;;;8.05;88.02
62697;BME280;48761;42.680;23.312;2023-02-28T08:41:04;95460.28;;;8.06;89.24
62697;BME280;48761;42.680;23.312;2023-02-28T08:43:34;95405.28;;;7.76;89.20
62697;BME280;48761;42.680;23.312;2023-02-28T08:46:00;95451.72;;;8.01;89.00
62697;BME280;48761;42.680;23.312;2023-02-28T08:48:28;95452.78;;;8.14;89.39
62697;BME280;48761;42.680;23.312;2023-02-28T08:51:08;95460.72;;;8.14;89.21
62697;BME280;48761;42.680;23.312;2023-02-28T08:53:36;95452.25;;;8.25;89.36
62697;BME280;48761;42.680;23.312;2023-02-28T08:56:04;95468.66;;;8.50;88.45
62697;BME280;48761;42.680;23.312;2023-02-28T08:58:31;95464.47;;;8.63;88.15
62697;BME280;48761;42.680;23.312;2023-02-28T09:00:57;95467.09;;;8.81;87.56
62697;BME280;48761;42.680;23.312;2023-02-28T09:03:23;95467.81;;;9.01;86.77
62697;BME280;48761;42.680;23.312;2023-02-28T09:05:58;95464.91;;;9.06;86.37
62697;BME280;48761;42.680;23.312;2023-02-28T09:08:26;95439.41;;;9.03;85.75
62697;BME280;48761;42.680;23.312;2023-02-28T09:10:52;95451.22;;;9.14;85.12
62697;BME280;48761;42.680;23.312;2023-02-28T09:13:18;95437.78;;;9.17;84.52
62697;BME280;48761;42.680;23.312;2023-02-28T09:15:44;95448.00;;;9.25;84.14
62697;BME280;48761;42.680;23.312;2023-02-28T09:18:11;95438.31;;;9.07;83.64
62697;BME280;48761;42.680;23.312;2023-02-28T09:20:38;95455.25;;;9.21;83.83
62697;BME280;48761;42.680;23.312;2023-02-28T09:23:04;95455.69;;;9.29;83.67
62697;BME280;48761;42.680;23.312;2023-02-28T09:25:30;95460.84;;;9.33;83.39
62697;BME280;48761;42.680;23.312;2023-02-28T09:27:56;95455.31;;;9.03;84.15
62697;BME280;48761;42.680;23.312;2023-02-28T09:30:22;95441.59;;;8.95;84.65
62697;BME280;48761;42.680;23.312;2023-02-28T09:32:47;95442.28;;;8.82;85.29
62697;BME280;48761;42.680;23.312;2023-02-28T09:35:13;95419.00;;;8.88;85.01
62697;BME280;48761;42.680;23.312;2023-02-28T09:37:39;95452.09;;;9.14;84.50
62697;BME280;48761;42.680;23.312;2023-02-28T09:40:06;95418.63;;;9.12;83.96
62697;BME280;48761;42.680;23.312;2023-02-28T09:42:33;95422.66;;;9.19;83.32
62697;BME280;48761;42.680;23.312;2023-02-28T09:45:02;95438.72;;;9.16;83.41
62697;BME280;48761;42.680;23.312;2023-02-28T09:47:34;95431.72;;;9.15;83.66
62697;BME280;48761;42.680;23.312;2023-02-28T09:50:31;95441.63;;;9.11;84.72
62697;BME280;48761;42.680;23.312;2023-02-28T09:53:02;95438.41;;;9.22;85.00
62697;BME280;48761;42.680;23.312;2023-02-28T09:55:34;95439.06;;;9.10;85.23
62697;BME280;48761;42.680;23.312;2023-02-28T09:58:03;95431.66;;;9.33;84.77
62697;BME280;48761;42.680;23.312;2023-02-28T10:00:39;95435.56;;;9.41;84.42
62697;BME280;48761;42.680;23.312;2023-02-28T10:05:52;95433.56;;;9.78;82.84
62697;BME280;48761;42.680;23.312;2023-02-28T10:08:29;95429.44;;;9.88;82.60
62697;BME280;48761;42.680;23.312;2023-02-28T10:11:02;95420.03;;;9.66;82.39
62697;BME280;48761;42.680;23.312;2023-02-28T10:16:24;95399.09;;;9.13;84.39
62697;BME280;48761;42.680;23.312;2023-02-28T10:21:34;95370.81;;;8.97;84.86
62697;BME280;48761;42.680;23.312;2023-02-28T10:24:49;95414.09;;;9.14;84.61
62697;BME280;48761;42.680;23.312;2023-02-28T10:26:52;95379.84;;;8.93;84.38
62697;BME280;48761;42.680;23.312;2023-02-28T10:29:19;95410.66;;;9.12;84.72
62697;BME280;48761;42.680;23.312;2023-02-28T10:31:46;95403.38;;;9.15;84.49
62697;BME280;48761;42.680;23.312;2023-02-28T10:34:14;95406.31;;;9.27;84.05
62697;BME280;48761;42.680;23.312;2023-02-28T10:36:41;95394.22;;;9.21;83.65
62697;BME280;48761;42.680;23.312;2023-02-28T10:39:40;95404.75;;;9.39;83.13
62697;BME280;48761;42.680;23.312;2023-02-28T10:42:20;95367.38;;;9.27;82.28
62697;BME280;48761;42.680;23.312;2023-02-28T10:44:46;95371.28;;;9.52;82.54
62697;BME280;48761;42.680;23.312;2023-02-28T10:47:17;95372.50;;;9.78;81.68
62697;BME280;48761;42.680;23.312;2023-02-28T10:49:50;95331.25;;;9.56;80.54
62697;BME280;48761;42.680;23.312;2023-02-28T10:52:36;95352.34;;;9.73;80.82
62697;BME280;48761;42.680;23.312;2023-02-28T10:57:45;95365.28;;;10.11;79.52
62697;BME280;48761;42.680;23.312;2023-02-28T11:00:19;95360.00;;;9.94;79.44
62697;BME280;48761;42.680;23.312;2023-02-28T11:02:46;95338.50;;;10.14;78.97
62697;BME280;48761;42.680;23.312;2023-02-28T11:07:59;95351.81;;;10.28;78.35
62697;BME280;48761;42.680;23.312;2023-02-28T11:10:30;95317.41;;;10.56;77.90
62697;BME280;48761;42.680;23.312;2023-02-28T11:12:57;95331.44;;;10.58;76.94
62697;BME280;48761;42.680;23.312;2023-02-28T11:15:34;95321.50;;;10.16;77.48
62697;BME280;48761;42.680;23.312;2023-02-28T11:20:38;95324.38;;;10.28;77.49
62697;BME280;48761;42.680;23.312;2023-02-28T11:23:04;95310.88;;;10.02;77.92
62697;BME280;48761;42.680;23.312;2023-02-28T11:25:38;95335.75;;;10.15;78.08
62697;BME280;48761;42.680;23.312;2023-02-28T11:33:44;95335.66;;;10.31;77.31
62697;BME280;48761;42.680;23.312;2023-02-28T11:39:09;95303.53;;;10.36;76.54
62697;BME280;48761;42.680;23.312;2023-02-28T11:53:10;95328.38;;;10.35;77.71
62697;BME280;48761;42.680;23.312;2023-02-28T11:55:59;95321.34;;;10.19;77.00
62697;BME280;48761;42.680;23.312;2023-02-28T12:01:13;95328.44;;;10.19;77.61
62697;BME280;48761;42.680;23.312;2023-02-28T12:06:37;95328.38;;;10.20;77.42
62697;BME280;48761;42.680;23.312;2023-02-28T12:11:56;95323.41;;;10.14;77.37
62697;BME280;48761;42.680;23.312;2023-02-28T12:17:25;95327.78;;;10.15;76.92
62697;BME280;48761;42.680;23.312;2023-02-28T12:27:41;95313.53;;;10.16;75.71
62697;BME280;48761;42.680;23.312;2023-02-28T12:32:55;95317.91;;;10.03;75.70
62697;BME280;48761;42.680;23.312;2023-02-28T12:35:36;95305.56;;;10.16;74.95
62697;BME280;48761;42.680;23.312;2023-02-28T12:38:25;95310.53;;;10.37;74.88
62697;BME280;48761;42.680;23.312;2023-02-28T12:43:42;95320.19;;;10.09;75.88
62697;BME280;48761;42.680;23.312;2023-02-28T12:46:23;95322.56;;;10.14;74.99
62697;BME280;48761;42.680;23.312;2023-02-28T12:48:56;95316.88;;;10.20;75.37
62697;BME280;48761;42.680;23.312;2023-02-28T12:51:22;95305.03;;;10.26;74.98
62697;BME280;48761;42.680;23.312;2023-02-28T12:53:58;95283.22;;;10.06;75.21
62697;BME280;48761;42.680;23.312;2023-02-28T12:57:10;95275.03;;;9.94;75.02
62697;BME280;48761;42.680;23.312;2023-02-28T12:59:56;95301.63;;;10.24;74.89
62697;BME280;48761;42.680;23.312;2023-02-28T13:06:23;95299.81;;;10.39;73.50
62697;BME280;48761;42.680;23.312;2023-02-28T13:09:02;95303.69;;;10.33;73.86
62697;BME280;48761;42.680;23.312;2023-02-28T13:11:47;95295.16;;;10.42;73.55
62697;BME280;48761;42.680;23.312;2023-02-28T13:19:17;95280.53;;;10.20;73.90
62697;BME280;48761;42.680;23.312;2023-02-28T13:21:47;95293.25;;;10.30;73.66
62697;BME280;48761;42.680;23.312;2023-02-28T13:29:32;95271.81;;;10.18;74.86
62697;BME280;48761;42.680;23.312;2023-02-28T13:34:28;95285.28;;;10.15;74.19
62697;BME280;48761;42.680;23.312;2023-02-28T13:39:59;95292.13;;;10.49;73.51
62697;BME280;48761;42.680;23.312;2023-02-28T13:42:35;95283.97;;;10.52;73.17
62697;BME280;48761;42.680;23.312;2023-02-28T13:47:40;95280.38;;;10.53;73.32
62697;BME280;48761;42.680;23.312;2023-02-28T13:50:32;95290.81;;;10.41;73.43
62697;BME280;48761;42.680;23.312;2023-02-28T13:58:34;95261.75;;;10.53;73.53
62697;BME280;48761;42.680;23.312;2023-02-28T14:06:49;95272.75;;;10.32;73.21
62697;BME280;48761;42.680;23.312;2023-02-28T14:11:55;95283.66;;;10.27;73.93
62697;BME280;48761;42.680;23.312;2023-02-28T14:17:07;95266.13;;;9.95;74.56
62697;BME280;48761;42.680;23.312;2023-02-28T14:19:38;95275.81;;;10.11;74.73
62697;BME280;48761;42.680;23.312;2023-02-28T14:27:55;95277.28;;;9.86;76.34
62697;BME280;48761;42.680;23.312;2023-02-28T14:30:52;95280.03;;;9.84;76.61
62697;BME280;48761;42.680;23.312;2023-02-28T14:33:42;95281.25;;;9.79;76.81
62697;BME280;48761;42.680;23.312;2023-02-28T14:36:22;95238.19;;;9.59;76.73
62697;BME280;48761;42.680;23.312;2023-02-28T14:38:55;95277.50;;;9.83;75.86
62697;BME280;48761;42.680;23.312;2023-02-28T14:41:30;95313.69;;;9.69;76.75
62697;BME280;48761;42.680;23.312;2023-02-28T14:43:58;95282.72;;;9.53;77.49
62697;BME280;48761;42.680;23.312;2023-02-28T14:46:30;95274.00;;;9.51;77.90
62697;BME280;48761;42.680;23.312;2023-02-28T14:49:00;95260.16;;;9.46;78.05
62697;BME280;48761;42.680;23.312;2023-02-28T14:51:27;95257.44;;;9.48;78.21
62697;BME280;48761;42.680;23.312;2023-02-28T14:53:58;95277.78;;;9.47;78.17
62697;BME280;48761;42.680;23.312;2023-02-28T14:56:36;95280.16;;;9.52;78.73
62697;BME280;48761;42.680;23.312;2023-02-28T14:59:03;95289.34;;;9.46;78.71
62697;BME280;48761;42.680;23.312;2023-02-28T15:01:30;95285.00;;;9.45;78.66
62697;BME280;48761;42.680;23.312;2023-02-28T15:04:04;95282.28;;;9.30;79.45
62697;BME280;48761;42.680;23.312;2023-02-28T15:06:32;95287.06;;;9.40;79.22
62697;BME280;48761;42.680;23.312;2023-02-28T15:09:14;95293.88;;;9.44;79.15
62697;BME280;48761;42.680;23.312;2023-02-28T15:11:41;95295.84;;;9.40;78.99
62697;BME280;48761;42.680;23.312;2023-02-28T15:14:17;95273.56;;;9.28;79.58
62697;BME280;48761;42.680;23.312;2023-02-28T15:16:51;95254.59;;;9.20;79.71
62697;BME280;48761;42.680;23.312;2023-02-28T15:19:25;95285.72;;;9.33;79.70
62697;BME280;48761;42.680;23.312;2023-02-28T15:22:01;95272.63;;;9.29;79.70
62697;BME280;48761;42.680;23.312;2023-02-28T15:27:15;95274.09;;;9.19;79.45
62697;BME280;48761;42.680;23.312;2023-02-28T15:29:49;95260.97;;;9.01;80.06
62697;BME280;48761;42.680;23.312;2023-02-28T15:32:33;95272.25;;;9.05;80.10
62697;BME280;48761;42.680;23.312;2023-02-28T15:37:56;95258.06;;;8.73;80.49
62697;BME280;48761;42.680;23.312;2023-02-28T15:40:38;95291.59;;;8.91;81.36